Time;durP1;ratioP1;P1;durP2;ratioP2;P2;SDS_P1;SDS_P2;PMS_P1;PMS_P2;Temp;Humidity;BMP_temperature;BMP_pressure;BME280_temperature;BME280_humidity;BME280_pressure;Samples;Min_cycle;Max_cycle;Signal;HPM_P1;HPM_P2
2021/06/15 00:00:21;;;;;;;17.27;7.37;;;;;;;;;;5073790;28;20173;-68
2021/06/15 00:02:47;;;;;;;17.57;7.27;;;;;;;;;;5076415;28;20587;-68
2021/06/15 00:05:13;;;;;;;13.87;7.03;;;;;;;;;;5088467;28;20040;-68
2021/06/15 00:07:39;;;;;;;18.90;7.93;;;;;;;;;;5087259;28;20028;-68
2021/06/15 00:10:06;;;;;;;21.60;7.43;;;;;;;;;;5092919;28;20012;-68
2021/06/15 00:12:31;;;;;;;17.10;7.53;;;;;;;;;;5091887;28;20023;-68
2021/06/15 00:14:56;;;;;;;17.27;6.70;;;;;;;;;;5093214;28;20016;-68
2021/06/15 00:17:22;;;;;;;18.03;7.23;;;;;;;;;;5091445;28;20031;-68
2021/06/15 00:19:47;;;;;;;16.87;7.10;;;;;;;;;;5092987;28;20028;-68
2021/06/15 00:22:12;;;;;;;14.60;6.57;;;;;;;;;;5092207;28;20480;-68
2021/06/15 00:24:37;;;;;;;21.07;7.20;;;;;;;;;;5092667;28;20031;-68
2021/06/15 00:27:03;;;;;;;15.30;6.77;;;;;;;;;;5092073;28;20077;-68
2021/06/15 00:29:28;;;;;;;15.93;6.83;;;;;;;;;;5093298;28;20065;-68
2021/06/15 00:31:54;;;;;;;13.67;6.60;;;;;;;;;;5093043;28;20541;-68
2021/06/15 00:34:19;;;;;;;17.13;7.13;;;;;;;;;;5092600;28;20027;-68
2021/06/15 00:36:44;;;;;;;16.47;6.60;;;;;;;;;;5092271;28;20080;-68
2021/06/15 00:39:09;;;;;;;17.00;7.03;;;;;;;;;;5092617;28;20032;-68
2021/06/15 00:41:35;;;;;;;15.10;6.70;;;;;;;;;;5092291;28;20034;-68
2021/06/15 00:44:00;;;;;;;11.17;5.63;;;;;;;;;;5087910;28;20027;-68
2021/06/15 00:46:25;;;;;;;13.87;6.77;;;;;;;;;;5091974;28;20036;-68
2021/06/15 00:48:51;;;;;;;15.53;6.27;;;;;;;;;;5091122;28;20024;-68
2021/06/15 00:51:16;;;;;;;14.40;6.03;;;;;;;;;;5092454;28;20460;-68
2021/06/15 00:53:42;;;;;;;12.43;5.97;;;;;;;;;;5091489;28;20468;-68
2021/06/15 00:56:07;;;;;;;9.67;5.30;;;;;;;;;;5092589;28;20020;-68
2021/06/15 00:58:32;;;;;;;14.90;5.67;;;;;;;;;;5092123;28;20494;-68
2021/06/15 01:00:58;;;;;;;13.10;5.80;;;;;;;;;;5093318;28;20019;-68
2021/06/15 01:03:24;;;;;;;14.17;5.73;;;;;;;;;;5089290;28;20472;-68
2021/06/15 01:05:49;;;;;;;13.73;5.50;;;;;;;;;;5091596;28;20368;-68
2021/06/15 01:08:41;;;;;;;14.10;5.57;;;;;;;;;;5087600;28;20056;-68
2021/06/15 01:11:13;;;;;;;10.27;5.40;;;;;;;;;;5085854;28;20089;-68
2021/06/15 01:13:57;;;;;;;13.40;5.57;;;;;;;;;;5091340;28;20469;-68
2021/06/15 01:16:54;;;;;;;15.57;5.23;;;;;;;;;;5091182;28;20028;-68
2021/06/15 01:19:36;;;;;;;11.20;5.50;;;;;;;;;;5073171;28;20060;-68
2021/06/15 01:22:20;;;;;;;21.80;5.65;;;;;;;;;;5090264;28;20035;-68
2021/06/15 01:25:05;;;;;;;14.90;5.90;;;;;;;;;;5091099;28;20050;-68
2021/06/15 01:27:41;;;;;;;14.37;4.83;;;;;;;;;;5086738;28;20055;-68
2021/06/15 01:30:09;;;;;;;12.17;4.83;;;;;;;;;;5092167;28;20020;-68
2021/06/15 01:32:35;;;;;;;10.40;4.83;;;;;;;;;;5088900;28;20026;-68
2021/06/15 01:35:02;;;;;;;14.00;5.10;;;;;;;;;;5090754;28;20032;-68
2021/06/15 01:37:30;;;;;;;13.00;5.23;;;;;;;;;;5091185;28;20487;-68
2021/06/15 01:39:56;;;;;;;12.50;4.63;;;;;;;;;;5091305;28;20028;-68
2021/06/15 01:42:25;;;;;;;14.33;4.93;;;;;;;;;;5090786;28;20030;-68
2021/06/15 01:44:54;;;;;;;13.57;5.20;;;;;;;;;;5091025;28;20024;-68
2021/06/15 01:47:21;;;;;;;14.57;5.13;;;;;;;;;;5089644;28;20051;-68
2021/06/15 01:49:53;;;;;;;12.53;5.20;;;;;;;;;;5088763;28;20405;-68
2021/06/15 01:52:22;;;;;;;19.33;6.20;;;;;;;;;;5090838;28;20033;-68
2021/06/15 01:54:48;;;;;;;10.43;5.00;;;;;;;;;;5087035;28;20077;-68
2021/06/15 01:57:14;;;;;;;16.47;5.10;;;;;;;;;;5090706;28;20491;-68
2021/06/15 01:59:42;;;;;;;12.37;4.43;;;;;;;;;;5091252;28;20380;-68
2021/06/15 02:02:07;;;;;;;14.40;5.10;;;;;;;;;;5090604;28;20024;-68
2021/06/15 02:04:35;;;;;;;13.67;5.17;;;;;;;;;;5087397;28;20051;-68
2021/06/15 02:07:02;;;;;;;12.43;5.47;;;;;;;;;;5071865;28;20369;-68
2021/06/15 02:09:29;;;;;;;21.60;4.60;;;;;;;;;;5069686;28;20036;-68
2021/06/15 02:11:54;;;;;;;11.53;5.30;;;;;;;;;;5070498;28;20023;-68
2021/06/15 02:14:25;;;;;;;15.97;5.20;;;;;;;;;;5072718;28;20108;-68
2021/06/15 02:16:52;;;;;;;17.47;5.07;;;;;;;;;;5071666;28;20111;-68
2021/06/15 02:19:19;;;;;;;15.70;5.60;;;;;;;;;;5072254;28;20016;-68
2021/06/15 02:21:46;;;;;;;13.40;4.87;;;;;;;;;;5075699;28;20483;-68
2021/06/15 02:24:11;;;;;;;17.03;5.20;;;;;;;;;;5073342;28;20048;-68
2021/06/15 02:26:37;;;;;;;15.47;5.70;;;;;;;;;;5071869;28;20368;-68
2021/06/15 02:29:02;;;;;;;12.00;5.97;;;;;;;;;;5075166;28;20020;-68
2021/06/15 02:31:30;;;;;;;17.20;5.93;;;;;;;;;;5069874;28;20027;-68
2021/06/15 02:34:01;;;;;;;13.97;6.00;;;;;;;;;;5071089;28;20016;-68
2021/06/15 02:36:34;;;;;;;15.87;5.77;;;;;;;;;;5071509;28;20435;-68
2021/06/15 02:39:01;;;;;;;16.60;6.50;;;;;;;;;;5070078;28;20041;-68
2021/06/15 02:41:29;;;;;;;12.43;5.40;;;;;;;;;;5076116;28;20036;-68
2021/06/15 02:43:59;;;;;;;13.37;6.00;;;;;;;;;;5074203;28;20070;-68
2021/06/15 02:46:25;;;;;;;17.83;5.67;;;;;;;;;;5077807;28;20033;-68
2021/06/15 02:48:52;;;;;;;11.63;5.47;;;;;;;;;;5069802;28;20073;-68
2021/06/15 02:51:18;;;;;;;13.80;5.70;;;;;;;;;;5070587;28;20468;-68
2021/06/15 02:53:47;;;;;;;16.20;5.80;;;;;;;;;;5070261;28;20040;-68
2021/06/15 02:56:15;;;;;;;11.83;4.70;;;;;;;;;;5075346;28;20085;-68
2021/06/15 02:58:41;;;;;;;15.07;4.90;;;;;;;;;;5076905;28;20107;-68
2021/06/15 03:01:06;;;;;;;13.70;4.63;;;;;;;;;;5072105;28;20116;-68
2021/06/15 03:03:31;;;;;;;11.83;5.10;;;;;;;;;;5068711;28;20028;-68
2021/06/15 03:05:57;;;;;;;15.90;5.00;;;;;;;;;;5070507;28;20016;-68
2021/06/15 03:08:22;;;;;;;10.70;4.73;;;;;;;;;;5073028;28;20890;-68
2021/06/15 03:10:48;;;;;;;14.00;5.00;;;;;;;;;;5071504;28;20389;-68
2021/06/15 03:13:33;;;;;;;12.23;4.50;;;;;;;;;;5069934;28;20496;-68
2021/06/15 03:16:00;;;;;;;13.30;4.33;;;;;;;;;;5069738;28;20066;-68
2021/06/15 03:18:28;;;;;;;10.77;4.33;;;;;;;;;;5069880;28;20086;-68
2021/06/15 03:20:58;;;;;;;9.57;4.17;;;;;;;;;;5072793;28;20165;-68
2021/06/15 03:23:46;;;;;;;12.30;4.50;;;;;;;;;;5069112;28;20039;-68
2021/06/15 03:26:13;;;;;;;9.00;4.07;;;;;;;;;;5070346;28;20043;-68
2021/06/15 03:28:41;;;;;;;12.87;4.50;;;;;;;;;;5068805;28;20020;-68
2021/06/15 03:31:06;;;;;;;11.73;5.23;;;;;;;;;;5069874;28;20027;-68
2021/06/15 03:33:34;;;;;;;12.33;3.97;;;;;;;;;;5069738;28;20468;-68
2021/06/15 03:36:01;;;;;;;11.10;4.50;;;;;;;;;;5070348;28;20392;-68
2021/06/15 03:38:31;;;;;;;11.13;3.87;;;;;;;;;;5072374;28;20028;-68
2021/06/15 03:40:57;;;;;;;12.37;4.13;;;;;;;;;;5069719;28;20033;-68
2021/06/15 03:43:24;;;;;;;15.60;4.27;;;;;;;;;;5070221;28;20029;-68
2021/06/15 03:45:51;;;;;;;12.90;4.33;;;;;;;;;;5071614;28;20558;-68
2021/06/15 03:48:17;;;;;;;11.97;3.80;;;;;;;;;;5070627;28;20302;-68
2021/06/15 03:50:43;;;;;;;17.60;3.77;;;;;;;;;;5069377;28;20021;-68
2021/06/15 03:53:10;;;;;;;7.37;3.43;;;;;;;;;;5070032;28;20031;-68
2021/06/15 03:55:38;;;;;;;12.00;3.33;;;;;;;;;;5070993;28;20024;-68
2021/06/15 03:58:04;;;;;;;7.23;2.97;;;;;;;;;;5071769;28;20329;-68
2021/06/15 04:00:30;;;;;;;10.73;3.03;;;;;;;;;;5070921;28;20040;-68
2021/06/15 04:02:56;;;;;;;11.37;2.87;;;;;;;;;;5069396;28;20025;-68
2021/06/15 04:05:23;;;;;;;11.13;3.30;;;;;;;;;;5069754;28;20390;-68
2021/06/15 04:07:50;;;;;;;10.60;2.90;;;;;;;;;;5069094;28;20029;-68
2021/06/15 04:10:16;;;;;;;8.73;2.87;;;;;;;;;;5069520;28;20471;-68
2021/06/15 04:12:42;;;;;;;11.80;2.63;;;;;;;;;;5068682;28;20029;-68
2021/06/15 04:15:08;;;;;;;9.50;3.07;;;;;;;;;;5071024;28;20033;-68
2021/06/15 04:17:36;;;;;;;18.30;3.20;;;;;;;;;;5069011;28;20039;-68
2021/06/15 04:20:02;;;;;;;15.30;3.57;;;;;;;;;;5068177;28;20027;-68
2021/06/15 04:22:30;;;;;;;7.80;2.50;;;;;;;;;;5069970;28;20391;-68
2021/06/15 04:24:57;;;;;;;8.63;2.50;;;;;;;;;;5074470;28;20033;-68
2021/06/15 04:27:25;;;;;;;11.80;3.17;;;;;;;;;;5071801;28;20028;-68
2021/06/15 04:29:54;;;;;;;13.67;3.50;;;;;;;;;;5073865;28;20039;-68
2021/06/15 04:32:20;;;;;;;15.17;3.37;;;;;;;;;;5071357;28;20381;-68
2021/06/15 04:34:48;;;;;;;7.70;2.50;;;;;;;;;;5070440;28;20029;-68
2021/06/15 04:37:14;;;;;;;11.70;2.83;;;;;;;;;;5069145;28;20024;-68
2021/06/15 04:39:45;;;;;;;11.80;2.53;;;;;;;;;;5072374;28;20025;-68
2021/06/15 04:42:13;;;;;;;23.65;3.08;;;;;;;;;;5070890;28;20503;-68
2021/06/15 04:44:41;;;;;;;11.13;3.23;;;;;;;;;;5072810;28;20386;-68
2021/06/15 04:47:13;;;;;;;7.00;2.00;;;;;;;;;;5070533;28;20962;-68
2021/06/15 04:49:44;;;;;;;11.85;2.00;;;;;;;;;;5075277;28;20097;-68
2021/06/15 04:52:12;;;;;;;8.32;2.03;;;;;;;;;;5071308;28;20058;-68
2021/06/15 04:54:39;;;;;;;7.73;1.73;;;;;;;;;;5071892;28;20028;-68
2021/06/15 04:57:09;;;;;;;12.23;2.27;;;;;;;;;;5068979;28;20054;-68
2021/06/15 04:59:35;;;;;;;9.23;2.10;;;;;;;;;;5071917;28;20029;-68
2021/06/15 05:02:00;;;;;;;6.73;1.87;;;;;;;;;;5071133;28;20036;-68
2021/06/15 05:04:25;;;;;;;10.63;2.00;;;;;;;;;;5073198;28;20131;-68
2021/06/15 05:06:51;;;;;;;9.97;2.13;;;;;;;;;;5070704;28;20055;-68
2021/06/15 05:09:17;;;;;;;11.37;2.17;;;;;;;;;;5070823;28;20024;-68
2021/06/15 05:11:43;;;;;;;9.03;1.67;;;;;;;;;;5071211;28;20182;-68
2021/06/15 05:14:10;;;;;;;7.80;2.20;;;;;;;;;;5071049;28;20024;-68
2021/06/15 05:16:36;;;;;;;9.07;2.07;;;;;;;;;;5070426;28;20028;-68
2021/06/15 05:19:02;;;;;;;7.97;1.57;;;;;;;;;;5071208;28;20028;-68
2021/06/15 05:21:36;;;;;;;5.40;1.63;;;;;;;;;;5070696;28;20487;-68
2021/06/15 05:24:03;;;;;;;9.37;1.40;;;;;;;;;;5070165;28;20036;-68
2021/06/15 05:26:29;;;;;;;10.07;1.70;;;;;;;;;;5062520;28;20028;-68
2021/06/15 05:28:55;;;;;;;11.37;2.20;;;;;;;;;;5070268;28;20536;-68
2021/06/15 05:31:20;;;;;;;9.10;1.50;;;;;;;;;;5071397;28;20100;-68
2021/06/15 05:33:45;;;;;;;11.20;1.57;;;;;;;;;;5069183;28;20103;-68
2021/06/15 05:36:11;;;;;;;5.43;1.53;;;;;;;;;;5070428;28;20070;-68
2021/06/15 05:38:36;;;;;;;10.97;2.10;;;;;;;;;;5070501;28;20028;-68
2021/06/15 05:41:02;;;;;;;6.67;1.40;;;;;;;;;;5069854;28;20449;-68
2021/06/15 05:43:27;;;;;;;7.47;1.40;;;;;;;;;;5066382;28;20281;-68
2021/06/15 05:45:52;;;;;;;9.67;1.90;;;;;;;;;;5065129;28;20029;-68
2021/06/15 05:48:18;;;;;;;7.93;1.60;;;;;;;;;;5067068;28;20451;-68
2021/06/15 05:50:43;;;;;;;8.20;1.53;;;;;;;;;;5064660;28;20359;-68
2021/06/15 05:53:09;;;;;;;6.93;1.63;;;;;;;;;;5065462;28;20440;-68
2021/06/15 05:55:34;;;;;;;9.13;1.73;;;;;;;;;;5068466;28;20029;-68
2021/06/15 05:57:59;;;;;;;7.77;1.70;;;;;;;;;;5069797;28;20035;-68
2021/06/15 06:00:25;;;;;;;8.70;1.73;;;;;;;;;;5072341;28;20111;-69
2021/06/15 06:02:51;;;;;;;4.80;1.60;;;;;;;;;;5065476;28;20109;-69
2021/06/15 06:08:05;;;;;;;8.90;2.00;;;;;;;;;;5063468;28;20040;-69
2021/06/15 06:10:30;;;;;;;9.00;1.33;;;;;;;;;;5067311;28;20341;-68
2021/06/15 06:12:56;;;;;;;6.27;1.43;;;;;;;;;;5069365;28;20027;-69
2021/06/15 06:15:22;;;;;;;4.70;1.20;;;;;;;;;;5070192;28;20405;-69
2021/06/15 06:17:47;;;;;;;5.77;1.30;;;;;;;;;;5069821;28;20035;-69
2021/06/15 06:20:13;;;;;;;5.07;1.10;;;;;;;;;;5069694;28;20037;-69
2021/06/15 06:22:39;;;;;;;12.77;1.90;;;;;;;;;;5068545;28;20024;-69
2021/06/15 06:25:06;;;;;;;5.47;1.10;;;;;;;;;;5069684;28;20377;-69
2021/06/15 06:27:31;;;;;;;9.67;1.40;;;;;;;;;;5068242;28;20016;-69
2021/06/15 06:29:57;;;;;;;6.90;1.50;;;;;;;;;;5070763;28;20040;-69
2021/06/15 06:32:22;;;;;;;5.97;1.23;;;;;;;;;;5066758;28;20116;-69
2021/06/15 06:34:47;;;;;;;11.93;1.48;;;;;;;;;;5068265;28;20107;-69
2021/06/15 06:37:13;;;;;;;7.40;1.30;;;;;;;;;;5068016;28;20059;-69
2021/06/15 06:39:39;;;;;;;6.20;1.20;;;;;;;;;;5069973;28;20513;-69
2021/06/15 06:42:04;;;;;;;5.53;1.27;;;;;;;;;;5069338;28;20063;-69
2021/06/15 06:44:30;;;;;;;10.30;1.07;;;;;;;;;;5069915;28;20052;-69
2021/06/15 06:46:55;;;;;;;7.72;1.50;;;;;;;;;;5068822;28;20103;-69
2021/06/15 06:49:20;;;;;;;9.05;1.42;;;;;;;;;;5069877;28;20422;-69
2021/06/15 06:51:46;;;;;;;8.88;1.58;;;;;;;;;;5068212;28;20020;-69
2021/06/15 06:54:11;;;;;;;5.53;1.40;;;;;;;;;;5069696;28;20468;-69
2021/06/15 06:56:36;;;;;;;4.85;1.35;;;;;;;;;;5069442;28;20040;-69
2021/06/15 06:59:02;;;;;;;6.00;1.33;;;;;;;;;;5069844;28;20102;-69
2021/06/15 07:01:28;;;;;;;7.32;1.50;;;;;;;;;;5068871;28;20690;-70
2021/06/15 07:03:53;;;;;;;7.00;1.55;;;;;;;;;;5072309;28;20131;-69
2021/06/15 07:06:18;;;;;;;5.28;1.25;;;;;;;;;;5067376;28;20733;-70
2021/06/15 07:08:44;;;;;;;4.90;1.40;;;;;;;;;;5067846;28;20043;-70
2021/06/15 07:11:09;;;;;;;8.10;1.40;;;;;;;;;;5068790;28;20063;-70
2021/06/15 07:13:34;;;;;;;5.03;1.52;;;;;;;;;;5066765;28;20028;-71
2021/06/15 07:16:00;;;;;;;7.65;1.95;;;;;;;;;;5066656;28;20032;-71
2021/06/15 07:18:25;;;;;;;6.68;1.48;;;;;;;;;;5067048;28;20024;-71
2021/06/15 07:20:50;;;;;;;4.95;1.50;;;;;;;;;;5067145;28;20033;-71
2021/06/15 07:23:16;;;;;;;6.10;1.40;;;;;;;;;;5067392;28;20445;-72
2021/06/15 07:25:41;;;;;;;5.88;1.08;;;;;;;;;;5067119;28;20029;-71
2021/06/15 07:28:06;;;;;;;5.53;1.40;;;;;;;;;;5068167;28;20021;-71
2021/06/15 07:30:32;;;;;;;6.95;1.20;;;;;;;;;;5067631;28;20024;-71
2021/06/15 07:32:58;;;;;;;6.00;1.23;;;;;;;;;;5067940;28;20354;-71
2021/06/15 07:35:27;;;;;;;5.10;1.27;;;;;;;;;;5070565;28;20034;-72
2021/06/15 07:37:52;;;;;;;5.45;1.30;;;;;;;;;;5065400;28;20400;-72
2021/06/15 07:40:27;;;;;;;5.40;1.20;;;;;;;;;;5065936;28;20040;-72
2021/06/15 07:42:53;;;;;;;4.22;0.90;;;;;;;;;;5065961;28;20037;-73
2021/06/15 07:45:19;;;;;;;4.45;1.25;;;;;;;;;;5064653;28;20021;-73
2021/06/15 07:47:44;;;;;;;4.78;1.05;;;;;;;;;;5063695;28;20533;-72
2021/06/15 07:50:10;;;;;;;6.13;1.10;;;;;;;;;;5064585;28;20027;-72
2021/06/15 07:52:36;;;;;;;4.60;1.05;;;;;;;;;;5065334;28;20028;-73
2021/06/15 07:55:01;;;;;;;6.68;1.20;;;;;;;;;;5065911;28;20475;-72
2021/06/15 07:57:27;;;;;;;3.42;1.00;;;;;;;;;;5067277;28;20032;-73
2021/06/15 07:59:55;;;;;;;4.07;1.23;;;;;;;;;;5069108;28;20031;-74
2021/06/15 08:02:20;;;;;;;5.35;1.10;;;;;;;;;;5067049;28;20032;-74
2021/06/15 08:04:46;;;;;;;4.35;1.00;;;;;;;;;;5079359;28;20075;-74
2021/06/15 08:07:11;;;;;;;7.20;1.00;;;;;;;;;;5097586;28;20027;-74
2021/06/15 08:09:36;;;;;;;5.32;1.30;;;;;;;;;;5092613;28;20047;-73
2021/06/15 08:12:02;;;;;;;3.25;0.60;;;;;;;;;;5093361;28;20031;-74
2021/06/15 08:14:27;;;;;;;6.43;1.08;;;;;;;;;;5091395;28;20035;-74
2021/06/15 08:16:53;;;;;;;3.47;0.80;;;;;;;;;;5090842;28;20028;-74
2021/06/15 08:19:18;;;;;;;4.50;1.00;;;;;;;;;;5091764;28;20345;-75
2021/06/15 08:21:44;;;;;;;5.07;0.80;;;;;;;;;;5091565;28;20028;-76
2021/06/15 08:24:12;;;;;;;5.07;0.77;;;;;;;;;;5087003;28;20141;-76
2021/06/15 08:26:37;;;;;;;7.22;1.05;;;;;;;;;;5090438;28;20032;-75
2021/06/15 08:29:02;;;;;;;3.35;0.90;;;;;;;;;;5086592;28;20051;-76
2021/06/15 08:31:28;;;;;;;6.25;0.98;;;;;;;;;;5089575;28;20107;-76
2021/06/15 08:33:53;;;;;;;2.80;0.90;;;;;;;;;;5086302;28;20032;-76
2021/06/15 08:36:18;;;;;;;4.35;1.00;;;;;;;;;;5090221;28;20032;-76
2021/06/15 08:38:44;;;;;;;5.85;0.90;;;;;;;;;;5088022;28;20570;-76
2021/06/15 08:41:09;;;;;;;4.53;0.90;;;;;;;;;;5087525;28;20541;-77
2021/06/15 08:43:34;;;;;;;2.92;0.80;;;;;;;;;;5087512;28;20114;-77
2021/06/15 08:46:00;;;;;;;2.45;0.60;;;;;;;;;;5090191;28;20039;-76
2021/06/15 08:48:25;;;;;;;3.08;0.70;;;;;;;;;;5088373;28;20040;-76
2021/06/15 08:50:50;;;;;;;3.10;0.70;;;;;;;;;;5091644;28;20150;-76
2021/06/15 08:53:16;;;;;;;5.20;0.80;;;;;;;;;;5091677;28;20061;-75
2021/06/15 08:55:46;;;;;;;4.20;0.77;;;;;;;;;;5091171;28;20022;-76
2021/06/15 08:58:30;;;;;;;4.47;0.63;;;;;;;;;;5090283;28;20051;-76
2021/06/15 09:00:57;;;;;;;5.95;0.82;;;;;;;;;;5089654;28;20024;-75
2021/06/15 09:03:22;;;;;;;3.05;0.80;;;;;;;;;;5088341;28;20032;-74
2021/06/15 09:05:47;;;;;;;5.90;1.00;;;;;;;;;;5071692;28;20051;-75
2021/06/15 09:08:13;;;;;;;4.90;0.82;;;;;;;;;;5071703;28;20368;-76
2021/06/15 09:10:45;;;;;;;5.25;0.75;;;;;;;;;;5070520;28;20492;-75
2021/06/15 09:13:29;;;;;;;6.13;0.90;;;;;;;;;;5068201;28;20020;-73
2021/06/15 09:15:56;;;;;;;4.35;0.85;;;;;;;;;;5064639;28;20024;-74
2021/06/15 09:18:27;;;;;;;4.18;1.00;;;;;;;;;;5070981;28;20037;-74
2021/06/15 09:20:52;;;;;;;2.93;0.83;;;;;;;;;;5072083;28;20024;-75
2021/06/15 09:23:18;;;;;;;4.50;0.93;;;;;;;;;;5069571;28;20286;-76
2021/06/15 09:25:47;;;;;;;5.50;1.00;;;;;;;;;;5078221;28;20048;-74
2021/06/15 09:28:16;;;;;;;2.78;0.80;;;;;;;;;;5071287;28;20028;-73
2021/06/15 09:30:53;;;;;;;2.03;0.55;;;;;;;;;;5072589;28;20256;-74
2021/06/15 09:33:18;;;;;;;3.38;0.80;;;;;;;;;;5070291;28;20017;-73
2021/06/15 09:35:44;;;;;;;4.05;0.80;;;;;;;;;;5071549;28;20030;-72
2021/06/15 09:38:10;;;;;;;3.08;0.60;;;;;;;;;;5070423;28;20420;-72
2021/06/15 09:40:36;;;;;;;3.53;0.77;;;;;;;;;;5072761;28;20071;-73
2021/06/15 09:43:06;;;;;;;5.75;0.90;;;;;;;;;;5070604;28;20056;-72
2021/06/15 09:45:41;;;;;;;3.42;0.73;;;;;;;;;;5073151;28;20024;-71
2021/06/15 09:48:26;;;;;;;6.10;0.70;;;;;;;;;;5077813;28;20508;-71
2021/06/15 09:50:56;;;;;;;3.88;0.90;;;;;;;;;;5072273;28;20507;-72
2021/06/15 09:53:25;;;;;;;7.53;0.95;;;;;;;;;;5074865;28;20047;-73
2021/06/15 09:55:51;;;;;;;3.20;0.60;;;;;;;;;;5070404;28;20025;-71
2021/06/15 09:58:16;;;;;;;4.85;0.70;;;;;;;;;;5071930;28;20025;-72
2021/06/15 10:00:42;;;;;;;2.90;0.88;;;;;;;;;;5071414;28;20040;-71
2021/06/15 10:03:14;;;;;;;5.20;0.85;;;;;;;;;;5076588;28;20468;-69
2021/06/15 10:05:39;;;;;;;3.90;0.80;;;;;;;;;;5090471;28;20190;-69
2021/06/15 10:08:09;;;;;;;4.18;0.80;;;;;;;;;;5072837;28;20095;-69
2021/06/15 10:10:42;;;;;;;3.58;0.90;;;;;;;;;;5074810;28;20032;-72
2021/06/15 10:13:08;;;;;;;5.40;1.00;;;;;;;;;;5087458;28;20024;-69
2021/06/15 10:15:34;;;;;;;4.50;0.90;;;;;;;;;;5078854;28;20024;-70
2021/06/15 10:17:59;;;;;;;4.38;0.80;;;;;;;;;;5089087;28;20093;-69
2021/06/15 10:20:26;;;;;;;4.20;0.85;;;;;;;;;;5092435;28;20016;-69
2021/06/15 10:22:52;;;;;;;4.03;0.77;;;;;;;;;;5073975;28;20052;-69
2021/06/15 10:25:18;;;;;;;3.05;0.80;;;;;;;;;;5076411;28;20074;-69
2021/06/15 10:27:44;;;;;;;4.50;1.00;;;;;;;;;;5079335;28;20021;-69
2021/06/15 10:30:12;;;;;;;3.10;0.93;;;;;;;;;;5083433;28;20031;-69
2021/06/15 10:32:53;;;;;;;6.00;1.08;;;;;;;;;;5071448;28;20412;-68
2021/06/15 10:35:36;;;;;;;6.47;1.02;;;;;;;;;;5080448;28;20081;-68
2021/06/15 10:38:02;;;;;;;6.35;0.95;;;;;;;;;;5073289;28;20518;-69
2021/06/15 10:40:31;;;;;;;3.20;0.88;;;;;;;;;;5078730;28;20143;-70
2021/06/15 10:43:16;;;;;;;3.00;0.80;;;;;;;;;;5066954;28;20036;-69
2021/06/15 10:45:42;;;;;;;4.63;1.00;;;;;;;;;;5065231;28;20040;-68
2021/06/15 10:48:28;;;;;;;3.45;0.68;;;;;;;;;;5062440;28;20040;-68
2021/06/15 10:50:54;;;;;;;5.07;1.00;;;;;;;;;;5062012;28;20780;-68
2021/06/15 10:53:31;;;;;;;5.35;0.82;;;;;;;;;;5063792;28;20033;-68
2021/06/15 10:56:07;;;;;;;4.78;1.00;;;;;;;;;;5066276;28;20039;-68
2021/06/15 10:58:52;;;;;;;2.50;0.90;;;;;;;;;;5063975;28;20040;-67
2021/06/15 11:01:18;;;;;;;3.35;0.75;;;;;;;;;;5062657;28;20401;-67
2021/06/15 11:04:04;;;;;;;3.72;0.70;;;;;;;;;;5063463;28;20115;-67
2021/06/15 11:06:40;;;;;;;3.05;0.80;;;;;;;;;;4988995;28;20084;-68
2021/06/15 11:09:16;;;;;;;5.22;1.20;;;;;;;;;;4989530;28;20081;-68
2021/06/15 11:11:46;;;;;;;5.85;1.38;;;;;;;;;;4988335;28;20505;-68
2021/06/15 11:14:18;;;;;;;5.10;1.10;;;;;;;;;;4986568;28;20147;-68
2021/06/15 11:16:51;;;;;;;4.43;1.00;;;;;;;;;;4993687;28;20030;-67
2021/06/15 11:19:38;;;;;;;5.45;1.00;;;;;;;;;;4992054;28;20061;-67
2021/06/15 11:22:10;;;;;;;6.22;1.10;;;;;;;;;;4990384;28;20511;-67
2021/06/15 11:24:55;;;;;;;5.22;0.95;;;;;;;;;;4988491;28;20061;-68
2021/06/15 11:27:41;;;;;;;5.13;1.10;;;;;;;;;;4988306;28;20022;-68
2021/06/15 11:30:25;;;;;;;5.05;0.95;;;;;;;;;;4992557;28;20037;-68
2021/06/15 11:33:00;;;;;;;9.70;1.77;;;;;;;;;;4994656;28;20650;-67
2021/06/15 11:35:29;;;;;;;5.20;1.00;;;;;;;;;;4995642;28;20484;-68
2021/06/15 11:37:54;;;;;;;4.55;0.93;;;;;;;;;;4997381;28;20042;-67
2021/06/15 11:40:33;;;;;;;4.07;0.93;;;;;;;;;;4995833;28;20154;-66
2021/06/15 11:43:28;;;;;;;4.63;1.20;;;;;;;;;;5020887;28;20036;-66
2021/06/15 11:45:55;;;;;;;3.17;0.90;;;;;;;;;;5067939;28;20449;-66
2021/06/15 11:48:40;;;;;;;4.35;1.25;;;;;;;;;;5083142;28;20384;-66
2021/06/15 11:51:07;;;;;;;5.68;0.90;;;;;;;;;;5077627;28;20032;-67
2021/06/15 11:53:37;;;;;;;3.30;0.90;;;;;;;;;;5077237;28;20028;-67
2021/06/15 11:56:03;;;;;;;5.78;0.80;;;;;;;;;;5080309;28;20028;-66
2021/06/15 11:58:32;;;;;;;5.10;0.80;;;;;;;;;;5076360;28;20233;-67
2021/06/15 12:01:11;;;;;;;4.38;0.90;;;;;;;;;;5077553;28;20362;-67
2021/06/15 12:03:43;;;;;;;6.72;0.98;;;;;;;;;;5077116;28;20032;-67
2021/06/15 12:06:10;;;;;;;5.70;0.93;;;;;;;;;;5097457;28;20020;-67
2021/06/15 12:08:43;;;;;;;4.82;1.33;;;;;;;;;;5084380;28;20132;-66
2021/06/15 12:11:11;;;;;;;4.88;1.13;;;;;;;;;;5090868;28;20020;-66
2021/06/15 12:13:37;;;;;;;4.32;1.02;;;;;;;;;;5085460;28;20021;-66
2021/06/15 12:16:06;;;;;;;4.35;0.93;;;;;;;;;;5097595;28;20483;-67
2021/06/15 12:18:50;;;;;;;4.38;0.98;;;;;;;;;;5081062;28;20021;-67
2021/06/15 12:21:30;;;;;;;4.38;0.95;;;;;;;;;;5085646;28;20036;-67
2021/06/15 12:23:59;;;;;;;2.55;0.65;;;;;;;;;;5092134;28;20180;-66
2021/06/15 12:26:29;;;;;;;5.43;0.90;;;;;;;;;;5084851;28;20364;-66
2021/06/15 12:29:02;;;;;;;4.75;0.98;;;;;;;;;;5094877;28;20027;-66
2021/06/15 12:31:32;;;;;;;4.82;1.05;;;;;;;;;;5083598;28;20031;-66
2021/06/15 12:34:03;;;;;;;2.85;0.85;;;;;;;;;;5095455;28;20078;-66
2021/06/15 12:36:29;;;;;;;3.80;1.00;;;;;;;;;;5088885;28;20035;-67
2021/06/15 12:39:15;;;;;;;4.88;1.25;;;;;;;;;;5079840;28;20460;-66
2021/06/15 12:41:43;;;;;;;4.18;1.00;;;;;;;;;;5084363;28;20106;-66
2021/06/15 12:44:10;;;;;;;2.90;0.70;;;;;;;;;;5082833;28;20028;-67
2021/06/15 12:46:37;;;;;;;4.00;1.25;;;;;;;;;;5084526;28;20244;-66
2021/06/15 12:49:04;;;;;;;4.65;1.00;;;;;;;;;;5091215;28;20115;-66
2021/06/15 12:51:31;;;;;;;3.40;0.80;;;;;;;;;;5091148;28;20027;-67
2021/06/15 12:54:02;;;;;;;4.45;1.17;;;;;;;;;;5080841;28;20082;-67
2021/06/15 12:56:30;;;;;;;6.53;0.85;;;;;;;;;;5075796;28;20485;-66
2021/06/15 12:58:56;;;;;;;5.70;1.00;;;;;;;;;;5090544;28;20020;-66
2021/06/15 13:01:32;;;;;;;3.20;0.93;;;;;;;;;;5085601;28;20114;-66
2021/06/15 13:03:57;;;;;;;2.83;0.65;;;;;;;;;;5091240;28;20032;-66
2021/06/15 13:06:23;;;;;;;3.22;0.80;;;;;;;;;;5092531;28;20111;-66
2021/06/15 13:08:48;;;;;;;3.67;0.80;;;;;;;;;;5084837;28;20099;-66
2021/06/15 13:11:24;;;;;;;5.32;0.98;;;;;;;;;;5082549;28;20453;-66
2021/06/15 13:13:53;;;;;;;3.67;1.00;;;;;;;;;;5076665;28;20061;-66
2021/06/15 13:16:19;;;;;;;2.85;1.13;;;;;;;;;;5093851;28;20016;-66
2021/06/15 13:19:21;;;;;;;4.10;0.90;;;;;;;;;;5076028;28;20109;-66
2021/06/15 13:21:49;;;;;;;7.15;1.00;;;;;;;;;;4987040;28;20035;-66
2021/06/15 13:24:14;;;;;;;4.65;1.00;;;;;;;;;;4971300;28;20039;-66
2021/06/15 13:26:41;;;;;;;7.10;0.85;;;;;;;;;;4984969;28;20026;-66
2021/06/15 13:29:06;;;;;;;4.25;0.85;;;;;;;;;;4971302;28;20110;-66
2021/06/15 13:31:32;;;;;;;3.00;0.80;;;;;;;;;;4985034;28;20054;-66
2021/06/15 13:34:04;;;;;;;5.82;0.93;;;;;;;;;;4981108;28;20023;-66
2021/06/15 13:36:29;;;;;;;5.13;1.00;;;;;;;;;;4983453;28;20027;-66
2021/06/15 13:39:04;;;;;;;4.90;0.93;;;;;;;;;;4986065;28;20101;-66
2021/06/15 13:41:30;;;;;;;4.80;1.00;;;;;;;;;;4977111;28;20026;-66
2021/06/15 13:43:55;;;;;;;3.08;0.88;;;;;;;;;;4984180;28;20518;-66
2021/06/15 13:46:21;;;;;;;5.65;1.00;;;;;;;;;;4990428;28;20121;-66
2021/06/15 13:48:46;;;;;;;4.60;0.82;;;;;;;;;;4982833;28;20061;-66
2021/06/15 13:51:16;;;;;;;3.97;0.93;;;;;;;;;;4991009;28;20389;-66
2021/06/15 13:53:41;;;;;;;5.88;1.30;;;;;;;;;;4977968;28;20113;-66
2021/06/15 13:56:07;;;;;;;3.75;0.85;;;;;;;;;;5052396;28;20123;-66
2021/06/15 13:58:32;;;;;;;5.05;0.80;;;;;;;;;;5082509;28;20020;-66
2021/06/15 14:00:57;;;;;;;3.25;0.70;;;;;;;;;;5081134;28;20339;-66
2021/06/15 14:03:23;;;;;;;4.32;0.85;;;;;;;;;;5085469;28;20027;-66
2021/06/15 14:05:48;;;;;;;4.95;1.10;;;;;;;;;;5092261;28;20040;-66
2021/06/15 14:08:14;;;;;;;4.18;1.10;;;;;;;;;;5079861;28;20107;-66
2021/06/15 14:10:39;;;;;;;4.60;0.93;;;;;;;;;;5090246;28;20096;-66
2021/06/15 14:13:05;;;;;;;5.18;1.30;;;;;;;;;;5087944;28;20091;-66
2021/06/15 14:15:30;;;;;;;4.60;1.10;;;;;;;;;;5083650;28;20035;-66
2021/06/15 14:17:56;;;;;;;4.75;0.98;;;;;;;;;;5088247;28;20380;-66
2021/06/15 14:20:26;;;;;;;4.88;1.20;;;;;;;;;;5091622;28;20095;-66
2021/06/15 14:22:52;;;;;;;4.68;0.90;;;;;;;;;;5089457;28;20502;-66
2021/06/15 14:25:18;;;;;;;3.35;1.08;;;;;;;;;;5078496;28;20026;-66
2021/06/15 14:27:44;;;;;;;6.00;0.98;;;;;;;;;;5082131;28;20028;-66
2021/06/15 14:30:11;;;;;;;3.35;1.00;;;;;;;;;;5091873;28;20016;-67
2021/06/15 14:32:37;;;;;;;5.00;1.00;;;;;;;;;;5072108;28;20059;-67
2021/06/15 14:35:02;;;;;;;10.95;0.88;;;;;;;;;;5089481;28;20048;-67
2021/06/15 14:37:28;;;;;;;6.00;1.35;;;;;;;;;;5076016;28;20024;-67
2021/06/15 14:39:53;;;;;;;3.60;0.90;;;;;;;;;;5090278;28;20519;-67
2021/06/15 14:42:18;;;;;;;4.10;0.90;;;;;;;;;;5077685;28;20028;-68
2021/06/15 14:44:44;;;;;;;4.45;0.88;;;;;;;;;;5092031;28;20043;-68
2021/06/15 14:47:09;;;;;;;2.45;0.77;;;;;;;;;;5078924;28;20032;-68